createdAt,value
2019-06-26T03:08:41.235Z,27.90
2019-06-26T03:12:06.016Z,27.90
2019-06-26T03:15:04.556Z,27.90
2019-06-26T03:18:02.383Z,27.90
2019-06-26T03:21:25.651Z,27.80
2019-06-26T03:24:34.217Z,27.80
2019-06-26T03:27:33.755Z,27.90
2019-06-26T03:30:19.874Z,27.90
2019-06-26T03:32:47.487Z,27.90
2019-06-26T03:35:18.176Z,27.70
2019-06-26T03:37:48.877Z,27.70
2019-06-26T03:40:20.008Z,27.80
2019-06-26T03:42:50.342Z,27.80
2019-06-26T03:45:25.510Z,27.80
2019-06-26T03:47:53.485Z,27.80
2019-06-26T03:50:23.813Z,27.80
2019-06-26T03:52:54.398Z,27.80
2019-06-26T03:55:25.069Z,27.80
2019-06-26T03:57:55.651Z,27.80
2019-06-26T04:00:40.876Z,27.90
2019-06-26T04:03:11.431Z,27.90
2019-06-26T04:05:42.249Z,27.90
2019-06-26T04:08:13.171Z,27.90
2019-06-26T04:10:43.770Z,27.90
2019-06-26T04:13:14.448Z,27.90
2019-06-26T04:15:45.064Z,28.00
2019-06-26T04:18:15.827Z,28.10
2019-06-26T04:20:46.239Z,28.00
2019-06-26T04:23:16.592Z,28.00
2019-06-26T04:25:46.937Z,28.10
2019-06-26T04:28:17.809Z,28.20
2019-06-26T04:30:49.150Z,28.10
2019-06-26T04:33:19.525Z,28.10
2019-06-26T04:35:49.874Z,28.10
2019-06-26T04:38:20.213Z,28.10
2019-06-26T04:40:50.833Z,28.10
2019-06-26T04:43:21.181Z,28.10
2019-06-26T04:45:58.309Z,28.20
2019-06-26T04:48:23.860Z,28.30
2019-06-26T04:50:54.214Z,28.30
2019-06-26T04:53:24.908Z,28.20
2019-06-26T04:55:55.515Z,28.10
2019-06-26T04:58:26.141Z,28.20
2019-06-26T05:00:56.478Z,28.30
2019-06-26T05:03:27.249Z,28.30
2019-06-26T05:05:58.034Z,28.30
2019-06-26T05:08:28.365Z,28.10
2019-06-26T05:10:58.747Z,28.10
2019-06-26T05:13:29.066Z,28.20
2019-06-26T05:16:13.830Z,28.20
2019-06-26T05:18:32.415Z,28.10
2019-06-26T05:21:03.058Z,27.90
2019-06-26T05:23:34.003Z,28.10
2019-06-26T05:26:04.379Z,28.20
2019-06-26T05:28:35.371Z,27.90
2019-06-26T05:31:05.771Z,27.30
2019-06-26T05:33:36.478Z,27.80
2019-06-26T05:36:07.348Z,27.50
2019-06-26T05:38:38.118Z,27.70
2019-06-26T05:41:07.859Z,27.50
2019-06-26T05:43:38.204Z,27.40
2019-06-26T05:46:08.693Z,27.20
2019-06-26T05:48:39.574Z,27.30
2019-06-26T05:51:09.924Z,27.40
2019-06-26T05:53:40.607Z,27.70
2019-06-26T05:56:11.230Z,27.80
2019-06-26T05:58:41.720Z,27.90
2019-06-26T06:01:12.112Z,28.10
2019-06-26T06:03:42.922Z,28.00
2019-06-26T06:06:13.869Z,27.60
2019-06-26T06:08:44.490Z,27.50
2019-06-26T06:11:15.157Z,27.40
2019-06-26T06:13:45.757Z,27.50
2019-06-26T06:16:16.733Z,27.40
2019-06-26T06:18:47.030Z,27.40
2019-06-26T06:21:17.715Z,27.40
2019-06-26T06:23:48.042Z,27.60
2019-06-26T06:26:18.439Z,27.50
2019-06-26T06:28:48.800Z,27.80
2019-06-26T06:31:19.519Z,27.90
2019-06-26T06:33:49.843Z,27.50
2019-06-26T06:36:20.432Z,27.50
2019-06-26T06:38:50.807Z,27.70
2019-06-26T06:41:21.596Z,28.20
2019-06-26T06:43:52.000Z,27.80
2019-06-26T06:46:22.335Z,28.10
2019-06-26T06:48:52.692Z,28.30
2019-06-26T06:51:23.090Z,28.30
2019-06-26T06:53:53.793Z,28.10
2019-06-26T06:56:24.119Z,27.80
2019-06-26T06:58:54.574Z,27.90
2019-06-26T07:01:25.013Z,27.80
2019-06-26T07:03:55.661Z,28.10
2019-06-26T07:06:26.283Z,28.20
2019-06-26T07:08:56.644Z,28.00
2019-06-26T07:11:27.480Z,27.80
2019-06-26T07:13:57.916Z,27.40
2019-06-26T07:16:28.405Z,27.40
2019-06-26T07:18:58.801Z,27.80
2019-06-26T07:21:29.165Z,27.70
2019-06-26T07:23:59.465Z,27.70
2019-06-26T07:26:30.215Z,27.80
2019-06-26T07:29:00.866Z,27.90
2019-06-26T07:31:31.477Z,27.90
2019-06-26T07:34:02.377Z,28.50
2019-06-26T07:36:33.219Z,28.50
2019-06-26T07:39:04.690Z,29.00
2019-06-26T07:41:35.148Z,28.90
2019-06-26T07:44:05.518Z,28.80
2019-06-26T07:46:35.871Z,29.40
2019-06-26T07:49:06.508Z,29.30
2019-06-26T07:51:36.845Z,29.70
2019-06-26T07:54:07.144Z,30.70
2019-06-26T07:56:37.821Z,30.80
2019-06-26T07:59:08.186Z,31.10
2019-06-26T08:01:39.221Z,31.20
2019-06-26T08:04:10.173Z,31.70
2019-06-26T08:06:40.859Z,32.00
2019-06-26T08:09:11.371Z,32.30
2019-06-26T08:11:42.162Z,32.20
2019-06-26T08:14:12.508Z,32.50
2019-06-26T08:16:43.359Z,32.80
2019-06-26T08:19:13.708Z,33.00
2019-06-26T08:21:46.742Z,33.60
2019-06-26T08:24:16.909Z,33.80
2019-06-26T08:26:47.311Z,33.60
2019-06-26T08:29:17.925Z,32.20
2019-06-26T08:31:48.284Z,31.80
2019-06-26T08:34:18.728Z,32.40
2019-06-26T08:36:49.160Z,32.80
2019-06-26T08:39:19.811Z,33.30
2019-06-26T08:41:50.875Z,32.40
2019-06-26T08:44:21.764Z,33.40
2019-06-26T08:46:52.132Z,33.80
2019-06-26T08:49:25.965Z,33.50
2019-06-26T08:51:55.419Z,33.20
2019-06-26T08:54:26.396Z,33.10
2019-06-26T08:56:56.811Z,32.30
2019-06-26T08:59:27.487Z,32.30
2019-06-26T09:01:58.133Z,31.90
2019-06-26T09:04:29.034Z,33.00
2019-06-26T09:06:59.329Z,33.40
2019-06-26T09:09:29.968Z,32.60
2019-06-26T09:12:00.803Z,32.30
2019-06-26T09:14:31.226Z,32.40
2019-06-26T09:17:01.636Z,31.70
2019-06-26T09:19:31.987Z,31.60
2019-06-26T09:22:02.363Z,32.30
2019-06-26T09:24:32.812Z,32.70
2019-06-26T09:27:03.173Z,32.40
2019-06-26T09:29:34.122Z,32.20
2019-06-26T09:32:05.023Z,32.80
2019-06-26T09:34:35.689Z,32.90
2019-06-26T09:37:05.992Z,32.90
2019-06-26T09:39:37.224Z,33.30
2019-06-26T09:42:08.307Z,32.20
2019-06-26T09:44:38.655Z,32.90
2019-06-26T09:47:08.984Z,33.10
2019-06-26T09:49:39.376Z,32.50
2019-06-26T09:52:09.713Z,32.90
2019-06-26T09:54:40.624Z,33.00
2019-06-26T09:57:11.008Z,33.00
2019-06-26T09:59:41.350Z,33.10
2019-06-26T10:02:11.750Z,33.40
2019-06-26T10:04:42.335Z,32.70
2019-06-26T10:07:13.689Z,32.30
2019-06-26T10:09:44.003Z,32.50
2019-06-26T10:12:14.881Z,32.10
2019-06-26T10:14:47.830Z,32.10
2019-06-26T10:17:17.373Z,32.90
2019-06-26T10:19:47.730Z,32.80
2019-06-26T10:22:18.082Z,32.40
2019-06-26T10:24:48.822Z,32.50
2019-06-26T10:27:19.188Z,32.50
2019-06-26T10:29:49.580Z,32.20
2019-06-26T10:32:19.949Z,32.10
2019-06-26T10:34:50.673Z,31.90
2019-06-26T10:37:21.038Z,31.80
2019-06-26T10:39:51.362Z,31.80
2019-06-26T10:42:21.737Z,32.30
2019-06-26T10:44:52.672Z,32.50
2019-06-26T10:47:23.104Z,32.20
2019-06-26T10:49:53.460Z,32.70
2019-06-26T10:52:23.831Z,32.80
2019-06-26T10:54:54.184Z,33.10
2019-06-26T10:57:25.464Z,33.30
2019-06-26T10:59:56.176Z,33.00
2019-06-26T11:02:27.365Z,32.50
2019-06-26T11:04:57.784Z,33.00
2019-06-26T11:07:28.428Z,32.80
2019-06-26T11:09:58.844Z,32.70
2019-06-26T11:12:29.336Z,33.10
2019-06-26T11:14:59.945Z,33.80
2019-06-26T11:17:30.307Z,33.80
2019-06-26T11:20:00.703Z,34.00
2019-06-26T11:22:31.647Z,33.70
2019-06-26T11:25:02.386Z,33.10
2019-06-26T11:27:32.648Z,32.90
2019-06-26T11:30:03.652Z,32.80
2019-06-26T11:32:34.423Z,32.90
2019-06-26T11:35:05.796Z,34.60
2019-06-26T11:37:36.455Z,33.90
2019-06-26T11:40:07.954Z,33.40
2019-06-26T11:42:38.306Z,33.20
2019-06-26T11:45:12.296Z,32.40
2019-06-26T11:47:45.717Z,34.00
2019-06-26T11:50:15.266Z,33.00
2019-06-26T11:52:45.935Z,33.30
2019-06-26T11:55:17.207Z,33.60
2019-06-26T11:57:47.691Z,33.70
2019-06-26T12:00:20.292Z,33.70
2019-06-26T12:02:50.608Z,33.00
2019-06-26T12:05:21.232Z,33.50
2019-06-26T12:07:51.672Z,33.50
2019-06-26T12:10:22.482Z,33.60
2019-06-26T12:12:52.796Z,33.70
2019-06-26T12:15:25.775Z,34.10
2019-06-26T12:17:56.107Z,34.30
2019-06-26T12:20:26.541Z,34.50
2019-06-26T12:22:57.291Z,33.60
2019-06-26T12:25:27.935Z,33.90
2019-06-26T12:27:58.308Z,33.10
2019-06-26T12:30:28.922Z,33.60
2019-06-26T12:33:03.444Z,33.60
2019-06-26T12:35:31.481Z,33.80
2019-06-26T12:38:01.882Z,34.50
2019-06-26T12:40:32.256Z,33.90
2019-06-26T12:43:02.905Z,34.30
2019-06-26T12:45:33.281Z,35.10
2019-06-26T12:48:03.618Z,35.40
2019-06-26T12:50:36.129Z,34.90
2019-06-26T12:53:06.894Z,35.30
2019-06-26T12:55:37.305Z,35.20
2019-06-26T12:58:14.113Z,34.80
2019-06-26T13:00:39.708Z,35.40
2019-06-26T13:03:10.046Z,35.50
2019-06-26T13:05:40.385Z,34.90
2019-06-26T13:08:10.994Z,34.80
2019-06-26T13:10:49.807Z,35.50
2019-06-26T13:13:13.482Z,35.40
2019-06-26T13:15:43.830Z,34.60
2019-06-26T13:18:14.542Z,34.60
2019-06-26T13:20:52.824Z,34.90
2019-06-26T13:23:17.670Z,34.80
2019-06-26T13:25:48.035Z,35.00
2019-06-26T13:28:18.375Z,35.00
2019-06-26T13:30:52.979Z,34.80
2019-06-26T13:33:21.362Z,34.40
2019-06-26T13:35:52.202Z,34.30
2019-06-26T13:38:22.512Z,34.50
2019-06-26T13:40:52.961Z,34.80
2019-06-26T13:43:23.294Z,35.30
2019-06-26T13:45:53.640Z,34.70
2019-06-26T13:48:25.136Z,34.20
2019-06-26T13:51:08.788Z,34.00
2019-06-26T13:53:28.133Z,34.50
2019-06-26T13:55:58.542Z,33.60
2019-06-26T13:58:29.608Z,32.70
2019-06-26T14:00:59.970Z,33.90
2019-06-26T14:03:30.871Z,33.80
2019-06-26T14:06:01.621Z,34.10
2019-06-26T14:08:32.996Z,33.40
2019-06-26T14:11:07.270Z,33.80
2019-06-26T14:13:36.112Z,33.80
2019-06-26T14:16:06.502Z,33.40
2019-06-26T14:18:37.062Z,33.20
2019-06-26T14:21:07.381Z,32.70
2019-06-26T14:23:38.069Z,33.00
2019-06-26T14:26:08.866Z,32.90
2019-06-26T14:28:39.246Z,33.00
2019-06-26T14:31:09.699Z,32.80
2019-06-26T14:33:40.049Z,32.80
2019-06-26T14:36:10.927Z,33.20
2019-06-26T14:38:41.366Z,33.30
2019-06-26T14:41:12.233Z,32.80
2019-06-26T14:43:42.859Z,32.90
2019-06-26T14:46:13.772Z,32.00
2019-06-26T14:48:44.510Z,32.40
2019-06-26T14:51:15.323Z,32.30
2019-06-26T14:53:46.507Z,32.20
2019-06-26T14:56:17.271Z,32.00
2019-06-26T14:58:47.667Z,32.00
2019-06-26T15:01:18.327Z,31.60
2019-06-26T15:03:48.681Z,32.20
2019-06-26T15:06:19.029Z,32.70
2019-06-26T15:08:49.597Z,33.20
2019-06-26T15:11:21.043Z,32.20
2019-06-26T15:13:51.500Z,32.30
2019-06-26T15:16:22.277Z,32.60
2019-06-26T15:18:52.904Z,32.60
2019-06-26T15:21:23.206Z,32.70
2019-06-26T15:23:54.162Z,33.00
2019-06-26T15:26:24.497Z,32.60
2019-06-26T15:28:54.826Z,32.30
2019-06-26T15:31:25.218Z,32.10
2019-06-26T15:33:55.796Z,31.80
2019-06-26T15:36:26.302Z,31.60
2019-06-26T15:38:59.135Z,31.60
2019-06-26T15:41:29.414Z,31.30
2019-06-26T15:43:59.714Z,30.80
2019-06-26T15:46:30.380Z,30.50
2019-06-26T15:49:00.714Z,31.80
2019-06-26T15:51:31.051Z,31.10
2019-06-26T15:54:02.038Z,31.30
2019-06-26T15:56:32.897Z,31.10
2019-06-26T15:59:03.634Z,30.60
2019-06-26T16:01:34.252Z,29.80
2019-06-26T16:04:04.583Z,29.50
2019-06-26T16:06:35.010Z,29.80
2019-06-26T16:09:06.779Z,29.40
2019-06-26T16:11:37.111Z,29.00
2019-06-26T16:14:07.702Z,28.80
2019-06-26T16:16:39.781Z,28.60
2019-06-26T16:19:14.099Z,28.30
2019-06-26T16:21:44.490Z,28.80
2019-06-26T16:24:14.965Z,28.50
2019-06-26T16:26:45.375Z,28.10
2019-06-26T16:29:15.795Z,28.10
2019-06-26T16:31:46.754Z,28.20
2019-06-26T16:34:18.995Z,28.20
2019-06-26T16:36:49.891Z,28.00
2019-06-26T16:39:22.383Z,28.00
2019-06-26T16:41:52.987Z,28.00
2019-06-26T16:44:23.659Z,28.20
2019-06-26T16:46:53.977Z,28.10
2019-06-26T16:49:24.311Z,28.10
2019-06-26T16:51:54.595Z,28.00
2019-06-26T16:54:25.190Z,27.50
2019-06-26T16:56:56.071Z,27.00
2019-06-26T16:59:26.506Z,27.60
2019-06-26T17:01:57.184Z,27.10
2019-06-26T17:04:27.546Z,27.20
2019-06-26T17:06:57.899Z,27.10
2019-06-26T17:09:28.508Z,27.20
2019-06-26T17:11:58.915Z,27.30
2019-06-26T17:14:29.564Z,27.20
2019-06-26T17:17:00.501Z,26.80
2019-06-26T17:19:30.835Z,26.90
2019-06-26T17:22:01.232Z,27.00
2019-06-26T17:24:32.145Z,27.00
2019-06-26T17:27:02.579Z,26.80
2019-06-26T17:29:33.179Z,27.10
2019-06-26T17:32:03.993Z,26.80
2019-06-26T17:34:34.295Z,26.90
2019-06-26T17:37:04.651Z,26.70
2019-06-26T17:39:35.360Z,26.70
2019-06-26T17:42:06.139Z,26.90
2019-06-26T17:44:36.506Z,26.70
2019-06-26T17:47:07.575Z,26.60
2019-06-26T17:49:37.874Z,26.60
2019-06-26T17:52:08.260Z,26.70
2019-06-26T17:54:38.586Z,26.70
2019-06-26T17:57:09.221Z,26.80
2019-06-26T17:59:39.763Z,26.70
2019-06-26T18:02:10.083Z,26.70
2019-06-26T18:04:40.396Z,26.80
2019-06-26T18:07:10.729Z,26.00
2019-06-26T18:09:41.167Z,26.50
2019-06-26T18:12:11.787Z,26.30
2019-06-26T18:14:43.301Z,26.10
2019-06-26T18:17:22.102Z,26.00
2019-06-26T18:19:45.905Z,25.80
2019-06-26T18:22:16.329Z,26.00
2019-06-26T18:24:47.273Z,26.10
2019-06-26T18:27:18.286Z,26.20
2019-06-26T18:29:48.677Z,26.00
2019-06-26T18:32:19.680Z,26.00
2019-06-26T18:34:50.301Z,25.90
2019-06-26T18:37:20.668Z,25.80
2019-06-26T18:39:51.039Z,25.80
2019-06-26T18:42:21.441Z,25.90
2019-06-26T18:44:51.869Z,25.70
2019-06-26T18:47:22.597Z,25.90
2019-06-26T18:49:53.287Z,25.20
2019-06-26T18:52:23.634Z,25.50
2019-06-26T18:54:54.066Z,25.40
2019-06-26T18:57:24.388Z,25.00
2019-06-26T18:59:54.722Z,25.10
2019-06-26T19:02:25.086Z,25.10
2019-06-26T19:04:55.473Z,24.60
2019-06-26T19:07:25.812Z,24.70
2019-06-26T19:09:56.134Z,24.60
2019-06-26T19:12:26.462Z,24.80
2019-06-26T19:14:56.874Z,24.60
2019-06-26T19:17:27.240Z,24.50
2019-06-26T19:19:57.659Z,24.20
2019-06-26T19:22:28.316Z,24.00
2019-06-26T19:24:58.937Z,24.10
2019-06-26T19:27:29.285Z,23.80
2019-06-26T19:29:59.658Z,23.80
2019-06-26T19:32:30.361Z,23.60
2019-06-26T19:35:07.977Z,23.80
2019-06-26T19:37:33.004Z,23.40
2019-06-26T19:40:03.347Z,23.50
2019-06-26T19:42:33.787Z,23.20
2019-06-26T19:45:04.579Z,23.10
2019-06-26T19:47:35.433Z,23.00
2019-06-26T19:50:06.314Z,22.90
2019-06-26T19:52:36.650Z,22.70
2019-06-26T19:55:08.105Z,22.90
2019-06-26T19:57:38.734Z,22.70
2019-06-26T20:00:10.021Z,22.60
2019-06-26T20:02:41.005Z,22.50
2019-06-26T20:05:13.029Z,22.20
2019-06-26T20:07:43.610Z,22.30
2019-06-26T20:10:14.219Z,22.10
2019-06-26T20:12:44.967Z,21.90
2019-06-26T20:15:15.294Z,21.90
2019-06-26T20:17:45.930Z,21.80
2019-06-26T20:20:16.345Z,21.80
2019-06-26T20:22:46.673Z,21.80
2019-06-26T20:25:17.110Z,21.80
2019-06-26T20:27:47.597Z,21.70
2019-06-26T20:30:21.062Z,21.90
2019-06-26T20:32:51.386Z,21.50
2019-06-26T20:35:22.309Z,21.50
2019-06-26T20:37:53.650Z,21.50
2019-06-26T20:40:24.385Z,21.40
2019-06-26T20:42:55.394Z,21.40
2019-06-26T20:45:26.269Z,21.40
2019-06-26T20:47:57.457Z,21.30
2019-06-26T20:50:27.964Z,21.20
2019-06-26T20:52:58.347Z,21.10
2019-06-26T20:55:29.275Z,21.20
2019-06-26T20:57:59.718Z,21.00
2019-06-26T21:00:30.780Z,20.90
2019-06-26T21:03:01.830Z,20.80
2019-06-26T21:05:32.569Z,20.90
2019-06-26T21:08:03.336Z,20.70
2019-06-26T21:10:34.534Z,20.60
2019-06-26T21:13:04.876Z,20.20
2019-06-26T21:15:35.207Z,19.90
2019-06-26T21:18:05.520Z,19.90
2019-06-26T21:20:35.855Z,19.90
2019-06-26T21:23:17.704Z,20.00
2019-06-26T21:25:38.814Z,19.90
2019-06-26T21:28:09.527Z,19.90
2019-06-26T21:30:40.302Z,20.10
2019-06-26T21:33:10.928Z,19.90
2019-06-26T21:35:41.217Z,19.60
2019-06-26T21:39:26.228Z,20.10
2019-06-26T21:41:56.911Z,19.80
2019-06-26T21:44:27.269Z,19.50
2019-06-26T21:46:58.204Z,19.40
2019-06-26T21:49:28.675Z,19.10
2019-06-26T21:51:59.271Z,19.30
2019-06-26T21:54:29.605Z,19.40
2019-06-26T21:57:00.119Z,19.20
2019-06-26T21:59:32.349Z,19.30
2019-06-26T22:02:02.875Z,19.40
2019-06-26T22:04:33.443Z,18.90
2019-06-26T22:07:03.925Z,19.20
2019-06-26T22:09:34.339Z,19.10
2019-06-26T22:12:04.693Z,19.00
2019-06-26T22:14:37.000Z,19.10
2019-06-26T22:17:07.397Z,19.20
2019-06-26T22:19:38.074Z,19.30
2019-06-26T22:22:08.453Z,19.40
2019-06-26T22:24:45.101Z,19.60
2019-06-26T22:27:15.523Z,19.10
2019-06-26T22:29:46.278Z,19.30
2019-06-26T22:32:16.608Z,19.10
2019-06-26T22:34:48.174Z,19.40
2019-06-26T22:37:22.025Z,19.70
2019-06-26T22:39:52.921Z,19.40
2019-06-26T22:42:27.021Z,19.10
2019-06-26T22:44:57.517Z,19.00
2019-06-26T22:47:27.988Z,18.80
2019-06-26T22:49:58.314Z,19.00
2019-06-26T22:52:29.140Z,19.20
2019-06-26T22:54:59.783Z,19.00
2019-06-26T22:57:30.264Z,18.90
2019-06-26T23:00:00.863Z,18.70
2019-06-26T23:02:31.207Z,18.60
2019-06-26T23:05:01.891Z,18.60
2019-06-26T23:07:32.365Z,18.50
2019-06-26T23:10:03.129Z,18.60
2019-06-26T23:12:33.717Z,18.70
2019-06-26T23:15:04.222Z,19.00
2019-06-26T23:17:34.631Z,18.90
2019-06-26T23:20:05.563Z,18.80
2019-06-26T23:22:36.012Z,18.80
2019-06-26T23:25:06.885Z,18.50
2019-06-26T23:27:37.652Z,18.90
2019-06-26T23:30:18.435Z,18.90
2019-06-26T23:32:54.815Z,18.40
2019-06-26T23:35:27.228Z,18.80
2019-06-26T23:37:59.918Z,18.70
2019-06-26T23:40:30.705Z,18.50
2019-06-26T23:43:01.036Z,18.40
2019-06-26T23:45:31.363Z,18.50
2019-06-26T23:48:02.084Z,18.50
2019-06-26T23:50:32.460Z,18.40
2019-06-26T23:53:02.852Z,18.30
2019-06-26T23:55:33.560Z,18.50
2019-06-26T23:58:04.492Z,18.10
